createdAt,value
2023-06-17T00:01:49.040Z,17.00
2023-06-17T00:04:15.815Z,14.10
2023-06-17T00:06:42.634Z,13.80
2023-06-17T00:09:09.510Z,12.20
2023-06-17T00:11:36.299Z,13.20
2023-06-17T00:14:03.611Z,12.20
2023-06-17T00:16:33.901Z,9.90
2023-06-17T00:19:01.121Z,10.10
2023-06-17T00:21:27.858Z,8.40
2023-06-17T00:23:54.744Z,9.50
2023-06-17T00:26:21.511Z,10.60
2023-06-17T00:28:49.108Z,8.10
2023-06-17T00:31:17.784Z,10.90
2023-06-17T00:33:44.864Z,10.70
2023-06-17T00:36:11.686Z,10.50
2023-06-17T00:38:38.643Z,11.80
2023-06-17T00:41:05.416Z,12.80
2023-06-17T00:43:32.237Z,13.70
2023-06-17T00:45:59.968Z,11.60
2023-06-17T00:48:27.118Z,9.00
2023-06-17T00:50:54.018Z,10.30
2023-06-17T00:53:20.892Z,8.90
2023-06-17T00:55:48.141Z,7.70
2023-06-17T00:58:17.201Z,11.10
2023-06-17T01:00:43.980Z,9.40
2023-06-17T01:03:10.909Z,9.20
2023-06-17T01:05:39.855Z,10.00
2023-06-17T01:08:37.983Z,8.30
2023-06-17T01:11:04.765Z,10.00
2023-06-17T01:13:35.422Z,9.30
2023-06-17T01:16:04.019Z,9.40
2023-06-17T01:18:32.673Z,9.20
2023-06-17T01:21:00.273Z,8.30
2023-06-17T01:23:33.138Z,8.80
2023-06-17T01:26:02.903Z,8.10
2023-06-17T01:28:30.758Z,15.90
2023-06-17T01:30:58.600Z,10.10
2023-06-17T01:33:26.578Z,7.80
2023-06-17T01:36:03.514Z,7.60
2023-06-17T01:38:34.682Z,9.50
2023-06-17T01:41:05.781Z,7.70
2023-06-17T01:43:36.662Z,10.00
2023-06-17T01:46:05.564Z,8.10
2023-06-17T01:48:32.914Z,9.10
2023-06-17T01:50:59.997Z,9.30
2023-06-17T01:53:27.908Z,7.50
2023-06-17T01:55:55.428Z,7.70
2023-06-17T01:58:22.562Z,9.10
2023-06-17T02:00:49.414Z,9.20
2023-06-17T02:03:17.368Z,10.00
2023-06-17T02:05:45.885Z,7.00
2023-06-17T02:08:15.339Z,9.70
2023-06-17T02:10:42.632Z,9.20
2023-06-17T02:13:09.483Z,11.80
2023-06-17T02:15:36.684Z,7.90
2023-06-17T02:18:03.863Z,9.40
2023-06-17T02:20:30.716Z,8.50
2023-06-17T02:22:57.511Z,8.70
2023-06-17T02:25:24.376Z,10.00
2023-06-17T02:27:51.393Z,7.10
2023-06-17T02:30:18.667Z,7.80
2023-06-17T02:32:45.902Z,6.70
2023-06-17T02:35:12.846Z,7.90
2023-06-17T02:37:39.969Z,6.50
2023-06-17T02:40:10.074Z,6.00
2023-06-17T02:42:37.754Z,9.00
2023-06-17T02:45:05.959Z,7.20
2023-06-17T02:47:32.739Z,9.90
2023-06-17T02:49:59.671Z,8.30
2023-06-17T02:52:26.742Z,9.90
2023-06-17T02:54:53.679Z,7.80
2023-06-17T02:57:21.832Z,9.90
2023-06-17T02:59:48.935Z,9.80
2023-06-17T03:02:16.024Z,11.10
2023-06-17T03:04:43.494Z,8.50
2023-06-17T03:07:13.283Z,9.20
2023-06-17T03:09:40.133Z,8.50
2023-06-17T03:12:07.632Z,10.20
2023-06-17T03:14:34.895Z,10.90
2023-06-17T03:17:04.348Z,8.70
2023-06-17T03:19:31.340Z,8.30
2023-06-17T03:21:58.112Z,9.70
2023-06-17T03:24:26.829Z,11.60
2023-06-17T03:26:54.830Z,10.10
2023-06-17T03:29:22.294Z,8.70
2023-06-17T03:31:52.687Z,7.30
2023-06-17T03:34:20.402Z,8.10
2023-06-17T03:36:48.599Z,8.10
2023-06-17T03:39:15.944Z,8.60
2023-06-17T03:41:43.388Z,7.60
2023-06-17T03:44:10.719Z,11.20
2023-06-17T03:46:38.304Z,8.10
2023-06-17T03:49:05.581Z,7.70
2023-06-17T03:51:33.474Z,11.10
2023-06-17T03:54:00.789Z,10.60
2023-06-17T03:56:28.838Z,12.50
2023-06-17T03:58:55.723Z,10.90
2023-06-17T04:01:22.788Z,11.00
2023-06-17T04:03:50.290Z,13.20
2023-06-17T04:06:17.948Z,13.10
2023-06-17T04:08:45.259Z,15.50
2023-06-17T04:11:14.659Z,12.30
2023-06-17T04:13:41.431Z,14.60
2023-06-17T04:16:08.452Z,20.00
2023-06-17T04:18:35.407Z,21.90
2023-06-17T04:21:03.004Z,16.70
2023-06-17T04:23:31.547Z,16.30
2023-06-17T04:25:59.439Z,17.20
2023-06-17T04:28:26.302Z,17.90
2023-06-17T04:30:54.208Z,16.10
2023-06-17T04:33:21.507Z,21.90
2023-06-17T04:35:48.553Z,22.90
2023-06-17T04:38:15.844Z,19.50
2023-06-17T04:40:43.235Z,15.20
2023-06-17T04:43:11.204Z,17.60
2023-06-17T04:45:40.517Z,16.90
2023-06-17T04:48:08.257Z,19.90
2023-06-17T04:50:35.181Z,18.70
2023-06-17T04:53:04.840Z,23.80
2023-06-17T04:55:37.019Z,23.20
2023-06-17T04:58:05.747Z,19.00
2023-06-17T05:00:44.442Z,22.00
2023-06-17T05:03:15.127Z,21.00
2023-06-17T05:05:42.316Z,24.10
2023-06-17T05:08:09.279Z,25.00
2023-06-17T05:10:36.058Z,24.30
2023-06-17T05:13:03.780Z,23.50
2023-06-17T05:15:32.214Z,23.70
2023-06-17T05:17:59.095Z,23.80
2023-06-17T05:20:25.910Z,28.20
2023-06-17T05:22:52.765Z,26.50
2023-06-17T05:25:19.708Z,31.50
2023-06-17T05:27:46.569Z,31.10
2023-06-17T05:30:14.411Z,29.40
2023-06-17T05:32:44.332Z,27.80
2023-06-17T05:35:11.376Z,28.90
2023-06-17T05:37:38.677Z,32.20
2023-06-17T05:40:06.526Z,27.20
2023-06-17T05:42:34.796Z,24.50
2023-06-17T05:45:01.774Z,27.50
2023-06-17T05:47:30.805Z,29.20
2023-06-17T05:49:58.222Z,30.00
2023-06-17T05:52:25.547Z,28.60
2023-06-17T05:54:52.845Z,29.90
2023-06-17T05:57:19.820Z,28.60
2023-06-17T05:59:47.178Z,32.00
2023-06-17T06:02:14.054Z,28.60
2023-06-17T06:04:40.892Z,28.20
2023-06-17T06:07:08.698Z,25.20
2023-06-17T06:09:35.506Z,27.60
2023-06-17T06:12:02.625Z,29.10
2023-06-17T06:14:29.429Z,25.90
2023-06-17T06:16:56.870Z,27.80
2023-06-17T06:19:23.776Z,25.60
2023-06-17T06:21:51.073Z,24.40
2023-06-17T06:24:17.936Z,30.60
2023-06-17T06:26:44.766Z,28.20
2023-06-17T06:29:14.569Z,23.10
2023-06-17T06:31:44.634Z,23.10
2023-06-17T06:34:12.153Z,26.40
2023-06-17T06:36:38.953Z,23.70
2023-06-17T06:39:05.875Z,21.20
2023-06-17T06:41:32.815Z,26.20
2023-06-17T06:44:04.856Z,23.40
2023-06-17T06:46:33.033Z,22.20
2023-06-17T06:49:00.224Z,22.10
2023-06-17T06:51:27.588Z,20.60
2023-06-17T06:53:54.957Z,22.90
2023-06-17T06:56:21.908Z,20.70
2023-06-17T06:58:48.701Z,20.10
2023-06-17T07:01:15.854Z,17.90
2023-06-17T07:03:43.181Z,17.70
2023-06-17T07:06:10.292Z,19.20
2023-06-17T07:08:37.382Z,18.20
2023-06-17T07:11:04.173Z,24.80
2023-06-17T07:13:33.091Z,22.30
2023-06-17T07:15:59.938Z,18.00
2023-06-17T07:18:26.706Z,17.00
2023-06-17T07:20:53.505Z,22.40
2023-06-17T07:23:20.635Z,17.10
2023-06-17T07:25:48.262Z,19.80
2023-06-17T07:28:16.019Z,20.50
2023-06-17T07:30:43.086Z,18.90
2023-06-17T07:33:10.000Z,16.20
2023-06-17T07:35:37.669Z,15.30
2023-06-17T07:38:04.761Z,16.30
2023-06-17T07:40:31.634Z,16.50
2023-06-17T07:42:58.387Z,17.90
2023-06-17T07:45:25.267Z,15.10
2023-06-17T07:47:52.035Z,18.50
2023-06-17T07:50:19.065Z,20.10
2023-06-17T07:52:46.101Z,15.30
2023-06-17T07:55:13.275Z,16.80
2023-06-17T07:57:40.065Z,16.10
2023-06-17T08:00:11.394Z,17.00
2023-06-17T08:02:41.468Z,14.80
2023-06-17T08:05:09.869Z,12.90
2023-06-17T08:07:37.346Z,13.50
2023-06-17T08:10:08.000Z,11.80
2023-06-17T08:12:36.673Z,12.70
2023-06-17T08:15:04.146Z,13.30
2023-06-17T08:17:30.997Z,11.00
2023-06-17T08:19:57.911Z,11.90
2023-06-17T08:22:24.693Z,12.60
2023-06-17T08:24:51.518Z,10.70
2023-06-17T08:27:18.464Z,12.50
2023-06-17T08:29:45.258Z,11.90
2023-06-17T08:32:12.021Z,9.50
2023-06-17T08:34:38.836Z,9.60
2023-06-17T08:37:06.330Z,9.80
2023-06-17T08:39:33.269Z,8.70
2023-06-17T08:42:00.554Z,8.20
2023-06-17T08:44:30.372Z,9.20
2023-06-17T08:46:59.269Z,10.30
2023-06-17T08:49:27.964Z,9.10
2023-06-17T08:51:55.095Z,11.80
2023-06-17T08:54:22.844Z,9.50
2023-06-17T08:56:49.705Z,10.00
2023-06-17T08:59:16.560Z,8.90
2023-06-17T09:01:44.850Z,9.80
2023-06-17T09:04:13.897Z,8.50
2023-06-17T09:06:41.220Z,7.60
2023-06-17T09:09:07.994Z,8.80
2023-06-17T09:11:35.513Z,9.10
2023-06-17T09:14:02.817Z,7.10
2023-06-17T09:16:32.109Z,9.00
2023-06-17T09:19:00.792Z,7.50
2023-06-17T09:21:28.664Z,7.10
2023-06-17T09:23:57.532Z,7.00
2023-06-17T09:26:27.053Z,11.30
2023-06-17T09:28:53.853Z,7.10
2023-06-17T09:31:20.615Z,8.10
2023-06-17T09:33:48.053Z,7.30
2023-06-17T09:36:15.826Z,8.10
2023-06-17T09:38:42.859Z,11.60
2023-06-17T09:41:15.934Z,8.30
2023-06-17T09:46:11.326Z,8.00
2023-06-17T09:48:40.032Z,7.20
2023-06-17T09:51:11.038Z,7.60
2023-06-17T09:53:39.423Z,6.10
2023-06-17T09:56:12.700Z,7.90
2023-06-17T09:58:42.089Z,6.70
2023-06-17T10:01:12.518Z,8.50
2023-06-17T10:03:41.236Z,7.10
2023-06-17T10:06:11.514Z,7.90
2023-06-17T10:08:43.094Z,6.00
2023-06-17T10:11:13.212Z,7.30
2023-06-17T10:13:41.423Z,6.90
2023-06-17T10:16:13.392Z,6.40
2023-06-17T10:18:43.040Z,6.80
2023-06-17T10:21:12.793Z,7.20
2023-06-17T10:23:42.273Z,12.80
2023-06-17T10:26:09.528Z,14.00
2023-06-17T10:28:55.066Z,7.10
2023-06-17T10:31:27.550Z,5.40
2023-06-17T10:33:56.542Z,6.50
2023-06-17T10:36:25.485Z,7.00
2023-06-17T10:38:56.528Z,5.30
2023-06-17T10:41:44.026Z,6.00
2023-06-17T10:44:41.424Z,7.50
2023-06-17T10:47:24.297Z,7.10
2023-06-17T10:49:54.166Z,8.80
2023-06-17T10:52:21.472Z,6.10
2023-06-17T10:54:54.512Z,4.80
2023-06-17T10:57:37.350Z,6.00
2023-06-17T11:00:11.079Z,5.90
2023-06-17T11:02:39.730Z,5.40
2023-06-17T11:05:08.488Z,6.80
2023-06-17T11:07:35.522Z,4.10
2023-06-17T11:10:03.861Z,5.20
2023-06-17T11:12:31.142Z,5.70
2023-06-17T11:15:01.458Z,4.50
2023-06-17T11:17:28.901Z,3.80
2023-06-17T11:19:56.543Z,4.20
2023-06-17T11:22:23.625Z,5.90
2023-06-17T11:24:50.534Z,5.60
2023-06-17T11:27:18.546Z,5.50
2023-06-17T11:29:46.172Z,4.90
2023-06-17T11:32:13.475Z,4.00
2023-06-17T11:34:42.743Z,3.70
2023-06-17T11:37:12.585Z,5.50
2023-06-17T11:39:40.183Z,5.00
2023-06-17T11:42:08.337Z,5.20
2023-06-17T11:44:36.247Z,3.60
2023-06-17T11:47:04.459Z,3.20
2023-06-17T11:49:31.516Z,4.80
2023-06-17T11:52:06.979Z,3.30
2023-06-17T11:54:34.214Z,3.40
2023-06-17T11:57:01.460Z,4.20
2023-06-17T11:59:29.667Z,4.10
2023-06-17T12:01:57.092Z,3.30
2023-06-17T12:04:24.081Z,4.60
2023-06-17T12:06:51.022Z,2.90
2023-06-17T12:09:17.886Z,4.20
2023-06-17T12:11:44.823Z,2.70
2023-06-17T12:14:13.358Z,4.00
2023-06-17T12:16:42.474Z,4.20
2023-06-17T12:19:20.662Z,2.90
2023-06-17T12:21:47.513Z,3.30
2023-06-17T12:24:16.725Z,4.20
2023-06-17T12:26:44.433Z,3.00
2023-06-17T12:29:24.457Z,3.60
2023-06-17T12:31:52.766Z,3.40
2023-06-17T12:34:19.552Z,3.00
2023-06-17T12:36:46.340Z,3.20
2023-06-17T12:39:13.134Z,2.80
2023-06-17T12:41:40.222Z,2.30
2023-06-17T12:44:07.106Z,4.30
2023-06-17T12:46:36.824Z,2.70
2023-06-17T12:49:03.966Z,2.80
2023-06-17T12:51:30.967Z,2.80
2023-06-17T12:53:57.718Z,2.60
2023-06-17T12:56:24.483Z,4.30
2023-06-17T12:58:51.228Z,3.80
2023-06-17T13:01:18.214Z,3.50
2023-06-17T13:03:45.201Z,3.10
2023-06-17T13:06:12.125Z,3.80
2023-06-17T13:08:39.451Z,3.40
2023-06-17T13:11:06.534Z,3.40
2023-06-17T13:13:34.377Z,3.80
2023-06-17T13:16:02.794Z,3.50
2023-06-17T13:18:29.506Z,3.00
2023-06-17T13:20:56.636Z,3.70
2023-06-17T13:23:23.389Z,5.10
2023-06-17T13:25:50.357Z,3.70
2023-06-17T13:28:17.267Z,4.30
2023-06-17T13:30:44.732Z,3.80
2023-06-17T13:33:11.680Z,3.60
2023-06-17T13:35:38.684Z,4.80
2023-06-17T13:38:05.466Z,5.90
2023-06-17T13:40:32.315Z,4.20
2023-06-17T13:42:59.129Z,4.80
2023-06-17T13:45:26.512Z,6.80
2023-06-17T13:47:53.355Z,4.90
2023-06-17T13:50:20.487Z,5.30
2023-06-17T13:52:47.500Z,4.00
2023-06-17T13:55:14.300Z,3.90
2023-06-17T13:57:41.069Z,4.20
2023-06-17T14:00:09.800Z,5.20
2023-06-17T14:02:36.800Z,5.00
2023-06-17T14:05:04.676Z,3.90
2023-06-17T14:07:32.281Z,3.90
2023-06-17T14:09:59.396Z,8.00
2023-06-17T14:12:26.462Z,4.10
2023-06-17T14:14:55.035Z,4.10
2023-06-17T14:17:25.108Z,3.30
2023-06-17T14:19:52.525Z,4.30
2023-06-17T14:22:19.324Z,3.50
2023-06-17T14:24:46.420Z,4.80
2023-06-17T14:27:29.640Z,4.40
2023-06-17T14:29:56.451Z,3.40
2023-06-17T14:32:23.495Z,4.40
2023-06-17T14:34:51.510Z,3.10
2023-06-17T14:37:18.786Z,4.70
2023-06-17T14:39:45.686Z,4.80
2023-06-17T14:42:13.057Z,3.50
2023-06-17T14:44:40.668Z,3.90
2023-06-17T14:47:07.894Z,3.40
2023-06-17T14:49:34.960Z,3.80
2023-06-17T14:52:01.820Z,4.10
2023-06-17T14:54:28.712Z,3.60
2023-06-17T14:56:56.048Z,4.00
2023-06-17T14:59:22.871Z,3.10
2023-06-17T15:01:49.638Z,3.00
2023-06-17T15:04:16.706Z,3.30
2023-06-17T15:06:43.544Z,3.00
2023-06-17T15:09:27.098Z,3.60
2023-06-17T15:14:22.500Z,4.30
2023-06-17T15:16:50.156Z,5.20
2023-06-17T15:19:17.708Z,3.80
2023-06-17T15:21:44.705Z,4.50
2023-06-17T15:24:12.124Z,3.50
2023-06-17T15:26:39.166Z,5.70
2023-06-17T15:29:07.485Z,6.20
2023-06-17T15:31:35.120Z,3.70
2023-06-17T15:34:02.148Z,4.50
2023-06-17T15:36:30.050Z,3.90
2023-06-17T15:39:17.301Z,3.90
2023-06-17T15:41:45.479Z,5.40
2023-06-17T15:44:12.414Z,4.60
2023-06-17T15:46:39.292Z,3.60
2023-06-17T15:49:07.484Z,6.30
2023-06-17T15:51:35.646Z,4.40
2023-06-17T15:54:03.898Z,4.70
2023-06-17T15:56:31.228Z,7.70
2023-06-17T15:59:00.830Z,6.10
2023-06-17T16:01:28.560Z,4.90
2023-06-17T16:03:57.777Z,6.10
2023-06-17T16:06:24.746Z,7.40
2023-06-17T16:08:52.488Z,6.30
2023-06-17T16:11:19.777Z,6.10
2023-06-17T16:13:46.633Z,5.80
2023-06-17T16:16:13.457Z,5.20
2023-06-17T16:18:40.347Z,5.20
2023-06-17T16:21:07.103Z,5.10
2023-06-17T16:23:33.947Z,5.80
2023-06-17T16:26:02.209Z,4.70
2023-06-17T16:28:29.036Z,3.50
2023-06-17T16:30:55.896Z,5.60
2023-06-17T16:33:22.766Z,5.60
2023-06-17T16:35:49.629Z,4.30
2023-06-17T16:38:16.437Z,5.00
2023-06-17T16:40:43.263Z,5.40
2023-06-17T16:43:10.076Z,5.10
2023-06-17T16:45:37.122Z,6.30
2023-06-17T16:48:04.258Z,6.90
2023-06-17T16:50:31.104Z,5.10
2023-06-17T16:52:57.866Z,5.40
2023-06-17T16:55:25.015Z,7.80
2023-06-17T16:57:51.791Z,6.80
2023-06-17T17:00:19.655Z,6.50
2023-06-17T17:02:46.712Z,6.80
2023-06-17T17:05:13.549Z,8.30
2023-06-17T17:07:40.371Z,7.60
2023-06-17T17:10:07.396Z,7.70
2023-06-17T17:12:34.203Z,10.40
2023-06-17T17:15:01.169Z,6.90
2023-06-17T17:17:28.190Z,8.50
2023-06-17T17:19:55.657Z,8.70
2023-06-17T17:22:22.467Z,7.00
2023-06-17T17:24:49.276Z,5.70
2023-06-17T17:27:16.160Z,4.70
2023-06-17T17:29:42.928Z,5.80
2023-06-17T17:32:09.806Z,5.20
2023-06-17T17:34:36.594Z,6.40
2023-06-17T17:37:03.538Z,5.50
2023-06-17T17:39:30.527Z,5.80
2023-06-17T17:41:57.303Z,5.20
2023-06-17T17:44:24.053Z,4.80
2023-06-17T17:46:50.908Z,5.20
2023-06-17T17:49:17.723Z,6.50
2023-06-17T17:51:44.452Z,5.10
2023-06-17T17:54:11.300Z,5.50
2023-06-17T17:56:38.587Z,7.40
2023-06-17T17:59:06.366Z,9.20
2023-06-17T18:01:33.178Z,7.10
2023-06-17T18:03:59.939Z,6.30
2023-06-17T18:06:26.899Z,9.60
2023-06-17T18:08:53.715Z,8.70
2023-06-17T18:11:20.555Z,6.50
2023-06-17T18:13:47.422Z,6.90
2023-06-17T18:16:14.500Z,23.50
2023-06-17T18:18:41.405Z,29.60
2023-06-17T18:21:08.159Z,37.70
2023-06-17T18:23:34.918Z,15.30
2023-06-17T18:26:01.754Z,24.90
2023-06-17T18:28:28.773Z,43.60
2023-06-17T18:30:55.552Z,24.50
2023-06-17T18:33:22.523Z,15.10
2023-06-17T18:35:49.441Z,8.70
2023-06-17T18:38:16.808Z,9.50
2023-06-17T18:40:43.712Z,8.20
2023-06-17T18:43:10.684Z,7.90
2023-06-17T18:45:37.647Z,8.80
2023-06-17T18:48:05.398Z,9.30
2023-06-17T18:50:32.336Z,10.90
2023-06-17T18:52:59.138Z,10.30
2023-06-17T18:55:26.008Z,9.90
2023-06-17T18:57:52.742Z,11.90
2023-06-17T19:00:20.253Z,7.90
2023-06-17T19:02:47.509Z,9.40
2023-06-17T19:05:14.368Z,9.20
2023-06-17T19:07:44.614Z,10.00
2023-06-17T19:10:12.423Z,9.30
2023-06-17T19:12:39.581Z,10.20
2023-06-17T19:15:10.024Z,7.30
2023-06-17T19:17:38.737Z,8.10
2023-06-17T19:20:07.925Z,8.70
2023-06-17T19:22:36.844Z,8.20
2023-06-17T19:25:05.541Z,7.70
2023-06-17T19:27:32.662Z,8.60
2023-06-17T19:30:01.739Z,10.20
2023-06-17T19:32:29.543Z,9.20
2023-06-17T19:34:58.810Z,10.00
2023-06-17T19:37:27.957Z,8.40
2023-06-17T19:39:54.792Z,7.60
2023-06-17T19:42:22.035Z,10.60
2023-06-17T19:44:56.982Z,10.40
2023-06-17T19:47:25.788Z,12.20
2023-06-17T19:49:53.942Z,11.00
2023-06-17T19:52:21.254Z,13.50
2023-06-17T19:54:48.608Z,16.00
2023-06-17T19:57:15.936Z,12.00
2023-06-17T19:59:42.798Z,12.20
2023-06-17T20:02:11.119Z,12.90
2023-06-17T20:04:37.872Z,10.00
2023-06-17T20:07:04.845Z,9.40
2023-06-17T20:09:31.688Z,10.10
2023-06-17T20:11:58.457Z,10.90
2023-06-17T20:14:25.228Z,9.90
2023-06-17T20:16:53.093Z,11.40
2023-06-17T20:19:20.144Z,11.30
2023-06-17T20:21:47.171Z,9.60
2023-06-17T20:24:13.971Z,12.30
2023-06-17T20:26:40.820Z,9.90
2023-06-17T20:29:07.578Z,12.70
2023-06-17T20:31:34.347Z,9.70
2023-06-17T20:34:02.232Z,9.20
2023-06-17T20:36:29.503Z,9.60
2023-06-17T20:38:56.579Z,9.10
2023-06-17T20:41:23.315Z,11.10
2023-06-17T20:43:50.128Z,9.80
2023-06-17T20:46:17.450Z,10.60
2023-06-17T20:48:44.398Z,11.10
2023-06-17T20:51:11.360Z,8.90
2023-06-17T20:53:38.415Z,12.50
2023-06-17T20:56:05.210Z,43.80
2023-06-17T20:58:32.189Z,20.40
2023-06-17T21:00:59.076Z,11.50
2023-06-17T21:03:26.158Z,11.40
2023-06-17T21:05:52.968Z,8.90
2023-06-17T21:08:19.929Z,12.50
2023-06-17T21:10:46.684Z,11.40
2023-06-17T21:13:13.605Z,10.80
2023-06-17T21:15:40.629Z,9.30
2023-06-17T21:18:07.433Z,9.70
2023-06-17T21:20:34.258Z,11.40
2023-06-17T21:23:01.045Z,10.50
2023-06-17T21:25:27.875Z,10.80
2023-06-17T21:27:54.639Z,8.60
2023-06-17T21:30:21.640Z,13.80
2023-06-17T21:32:48.680Z,8.70
2023-06-17T21:35:15.729Z,10.10
2023-06-17T21:37:42.473Z,14.10
2023-06-17T21:40:10.206Z,9.40
2023-06-17T21:42:37.651Z,11.40
2023-06-17T21:45:04.852Z,10.20
2023-06-17T21:47:31.816Z,9.20
2023-06-17T21:49:59.518Z,10.60
2023-06-17T21:52:26.343Z,13.00
2023-06-17T21:54:53.132Z,11.30
2023-06-17T21:57:21.043Z,10.60
2023-06-17T21:59:47.824Z,13.70
2023-06-17T22:02:14.783Z,11.70
2023-06-17T22:04:41.612Z,12.10
2023-06-17T22:07:08.469Z,10.40
2023-06-17T22:09:35.321Z,12.20
2023-06-17T22:12:02.247Z,8.40
2023-06-17T22:14:29.034Z,12.00
2023-06-17T22:16:55.761Z,9.60
2023-06-17T22:19:22.786Z,10.60
2023-06-17T22:21:49.606Z,11.50
2023-06-17T22:24:16.454Z,9.70
2023-06-17T22:26:43.255Z,12.40
2023-06-17T22:29:10.015Z,11.10
2023-06-17T22:31:36.810Z,12.60
2023-06-17T22:34:03.645Z,10.70
2023-06-17T22:36:30.414Z,10.70
2023-06-17T22:38:57.240Z,11.40
2023-06-17T22:41:24.213Z,12.00
2023-06-17T22:43:51.135Z,12.40
2023-06-17T22:46:18.033Z,12.50
2023-06-17T22:48:44.807Z,11.60
2023-06-17T22:51:11.581Z,11.60
2023-06-17T22:53:38.357Z,11.70
2023-06-17T22:56:05.263Z,12.40
2023-06-17T22:58:32.079Z,13.00
2023-06-17T23:00:59.380Z,12.40
2023-06-17T23:03:26.675Z,13.90
2023-06-17T23:05:53.489Z,11.50
2023-06-17T23:08:20.236Z,13.00
2023-06-17T23:10:47.164Z,13.00
2023-06-17T23:13:14.039Z,10.80
2023-06-17T23:15:41.167Z,9.60
2023-06-17T23:18:08.446Z,10.10
2023-06-17T23:20:35.275Z,12.10
2023-06-17T23:23:04.168Z,12.80
2023-06-17T23:25:31.664Z,13.10
2023-06-17T23:27:58.477Z,11.90
2023-06-17T23:30:26.041Z,9.00
2023-06-17T23:32:53.424Z,12.60
2023-06-17T23:35:20.654Z,10.60
2023-06-17T23:37:47.559Z,12.70
2023-06-17T23:40:14.505Z,13.20
2023-06-17T23:42:41.636Z,13.90
2023-06-17T23:45:09.193Z,13.30
2023-06-17T23:47:36.277Z,12.30
2023-06-17T23:50:03.224Z,14.90
2023-06-17T23:52:30.086Z,12.20
2023-06-17T23:54:56.865Z,13.20
2023-06-17T23:57:23.654Z,16.40
2023-06-17T23:59:50.412Z,12.60
